Time;durP1;ratioP1;P1;durP2;ratioP2;P2;SDS_P1;SDS_P2;PMS_P1;PMS_P2;Temp;Humidity;BMP_temperature;BMP_pressure;BME280_temperature;BME280_humidity;BME280_pressure;Samples;Min_cycle;Max_cycle;Signal;HPM_P1;HPM_P2
2021/08/11 00:00:17;;;;;;;4.20;3.20;;;;;;;18.68;69.60;100768.66;4949494;29;20028;-90
2021/08/11 00:02:42;;;;;;;4.47;3.53;;;;;;;18.67;69.86;100767.00;4949341;29;20107;-90
2021/08/11 00:05:08;;;;;;;3.95;2.92;;;;;;;18.61;69.82;100763.13;4934606;29;20063;-91
2021/08/11 00:07:34;;;;;;;5.55;3.15;;;;;;;18.59;69.64;100752.63;4934583;29;20087;-90
2021/08/11 00:09:59;;;;;;;8.52;3.22;;;;;;;18.56;70.24;100755.59;4934648;29;20028;-90
2021/08/11 00:12:25;;;;;;;6.60;3.72;;;;;;;18.41;71.24;100755.22;4934677;29;20036;-90
2021/08/11 00:14:50;;;;;;;8.90;3.67;;;;;;;18.55;70.62;100756.56;4933220;29;20032;-90
2021/08/11 00:17:15;;;;;;;6.95;2.97;;;;;;;18.62;70.03;100757.66;4934563;29;20298;-90
2021/08/11 00:19:41;;;;;;;5.45;3.22;;;;;;;18.62;70.24;100762.13;4934431;29;20107;-90
2021/08/11 00:22:06;;;;;;;5.32;3.03;;;;;;;18.68;70.17;100766.88;4933159;29;20074;-90
2021/08/11 00:24:31;;;;;;;8.35;3.35;;;;;;;18.60;69.39;100764.94;4934447;29;20052;-91
2021/08/11 00:26:57;;;;;;;5.28;2.92;;;;;;;18.59;69.79;100757.94;4934436;29;20052;-91
2021/08/11 00:29:22;;;;;;;5.45;3.53;;;;;;;18.59;69.83;100760.59;4934429;29;20509;-90
2021/08/11 00:31:48;;;;;;;5.78;2.90;;;;;;;18.62;69.74;100757.66;4934386;29;20019;-91
2021/08/11 00:34:14;;;;;;;6.25;3.00;;;;;;;18.55;69.86;100743.28;4934161;29;20036;-91
2021/08/11 00:36:39;;;;;;;4.10;3.33;;;;;;;18.55;69.24;100753.06;4936810;29;20031;-90
2021/08/11 00:39:04;;;;;;;4.22;3.03;;;;;;;18.56;68.82;100754.72;4938109;29;20079;-90
2021/08/11 00:41:30;;;;;;;4.10;2.70;;;;;;;18.37;68.92;100745.03;4938123;29;20528;-90
2021/08/11 00:43:55;;;;;;;3.83;3.03;;;;;;;18.39;69.05;100756.38;4936806;29;20461;-90
2021/08/11 00:46:21;;;;;;;4.20;2.55;;;;;;;18.40;69.12;100753.56;4937927;29;20113;-90
2021/08/11 00:48:47;;;;;;;3.83;2.35;;;;;;;18.37;68.72;100751.19;4937961;29;20031;-90
2021/08/11 00:51:13;;;;;;;4.95;2.35;;;;;;;18.50;68.33;100742.88;4937889;29;20028;-90
2021/08/11 00:53:39;;;;;;;2.83;2.50;;;;;;;18.54;67.77;100728.31;4937741;29;20587;-90
2021/08/11 00:56:06;;;;;;;5.57;2.65;;;;;;;18.56;67.25;100728.16;4937745;29;20035;-90
2021/08/11 00:58:33;;;;;;;4.80;2.00;;;;;;;18.54;66.92;100720.34;4937692;29;20032;-90
2021/08/11 01:01:00;;;;;;;3.90;2.40;;;;;;;18.46;66.88;100730.84;4937668;29;20090;-90
2021/08/11 01:03:26;;;;;;;4.22;2.78;;;;;;;18.41;67.07;100731.31;4937686;29;20020;-90
2021/08/11 01:05:54;;;;;;;6.25;2.33;;;;;;;18.39;67.26;100725.28;4937605;29;20028;-90
2021/08/11 01:08:21;;;;;;;4.47;2.30;;;;;;;18.39;67.21;100721.81;4937558;29;20023;-90
2021/08/11 01:10:51;;;;;;;5.07;2.35;;;;;;;18.45;66.75;100723.03;4937498;29;20051;-90
2021/08/11 01:13:16;;;;;;;5.13;2.40;;;;;;;18.37;66.89;100726.44;4937462;29;20028;-90
2021/08/11 01:15:46;;;;;;;7.53;2.95;;;;;;;18.33;67.26;100730.38;4937284;29;20032;-90
2021/08/11 01:18:16;;;;;;;7.85;2.65;;;;;;;18.37;67.18;100726.44;4937884;29;20027;-90
2021/08/11 01:21:27;;;;;;;6.45;2.50;;;;;;;18.42;67.35;100729.47;4937331;29;20095;-90
2021/08/11 01:24:09;;;;;;;6.15;2.50;;;;;;;18.36;67.65;100736.22;4906368;29;20036;-91
2021/08/11 01:27:14;;;;;;;7.25;2.80;;;;;;;18.42;66.90;100734.78;4937644;29;20049;-90
2021/08/11 01:30:05;;;;;;;4.53;2.40;;;;;;;18.40;67.10;100731.44;4937194;29;20098;-90
2021/08/11 01:33:07;;;;;;;7.07;2.67;;;;;;;18.38;66.93;100728.09;4936986;29;20478;-90
2021/08/11 01:35:39;;;;;;;3.03;2.35;;;;;;;18.28;66.99;100727.31;4921853;29;20040;-90
2021/08/11 01:38:10;;;;;;;4.45;2.38;;;;;;;18.20;67.01;100730.69;4936927;29;20115;-90
2021/08/11 01:40:37;;;;;;;3.47;2.43;;;;;;;18.16;67.01;100740.78;4937074;29;20027;-90
2021/08/11 01:43:06;;;;;;;4.75;2.30;;;;;;;18.17;66.91;100742.47;4936938;29;20434;-90
2021/08/11 01:45:39;;;;;;;3.42;2.42;;;;;;;18.12;66.89;100738.56;4936782;29;20493;-90
2021/08/11 01:48:11;;;;;;;6.45;2.50;;;;;;;18.15;66.86;100739.13;4936282;29;20043;-90
2021/08/11 01:50:38;;;;;;;;;;;;;;;18.33;66.33;100747.16;4937283;29;20035;-90
2021/08/11 01:53:06;;;;;;;6.25;3.10;;;;;;;18.07;66.90;100741.66;4936783;29;19929;-90
2021/08/11 01:55:32;;;;;;;4.80;3.03;;;;;;;18.00;66.99;100751.19;4935276;29;20028;-91
2021/08/11 01:57:57;;;;;;;4.72;2.53;;;;;;;17.96;67.18;100755.94;4936708;29;20034;-90
2021/08/11 02:00:24;;;;;;;4.43;2.47;;;;;;;17.95;67.26;100742.78;4936469;29;20038;-90
2021/08/11 02:02:51;;;;;;;5.10;2.60;;;;;;;17.95;67.18;100748.09;4936674;29;20032;-90
2021/08/11 02:05:19;;;;;;;4.20;2.58;;;;;;;17.99;67.02;100733.56;4936538;29;20543;-91
2021/08/11 02:07:45;;;;;;;5.25;2.40;;;;;;;17.89;67.32;100733.59;4936496;29;20376;-90
2021/08/11 02:10:13;;;;;;;5.18;2.70;;;;;;;17.95;66.98;100738.34;4936412;29;20078;-90
2021/08/11 02:12:38;;;;;;;3.67;2.28;;;;;;;17.86;66.85;100725.09;4936407;29;20213;-90
2021/08/11 02:15:08;;;;;;;2.55;2.30;;;;;;;17.88;67.36;100723.94;4936283;29;20078;-90
2021/08/11 02:17:36;;;;;;;10.27;2.95;;;;;;;17.88;67.29;100731.91;4936094;29;20057;-90
2021/08/11 02:20:03;;;;;;;6.45;2.63;;;;;;;17.80;67.42;100737.09;4936295;29;20375;-90
2021/08/11 02:22:28;;;;;;;4.88;1.95;;;;;;;17.74;67.64;100729.69;4936273;29;20039;-90
2021/08/11 02:24:54;;;;;;;3.88;2.50;;;;;;;17.75;67.71;100732.22;4936119;29;20031;-90
2021/08/11 02:27:24;;;;;;;5.88;2.33;;;;;;;17.82;68.13;100727.97;4936223;29;20032;-90
2021/08/11 02:30:04;;;;;;;4.93;2.72;;;;;;;17.98;67.85;100730.06;4936205;29;20107;-90
2021/08/11 02:32:41;;;;;;;4.90;2.78;;;;;;;18.01;68.04;100728.97;4936097;29;20035;-90
2021/08/11 02:35:12;;;;;;;3.38;2.63;;;;;;;17.91;68.20;100730.78;4950472;28;20028;-91
2021/08/11 02:38:03;;;;;;;3.35;2.60;;;;;;;18.35;67.23;100739.03;4936070;29;20032;-90
2021/08/11 02:40:39;;;;;;;5.28;2.83;;;;;;;18.43;66.62;100747.13;4936004;29;20483;-90
2021/08/11 02:43:22;;;;;;;5.18;2.85;;;;;;;18.48;66.21;100741.34;4935736;29;20032;-90
2021/08/11 02:45:53;;;;;;;4.05;2.50;;;;;;;18.37;66.32;100732.59;4935693;29;20526;-90
2021/08/11 02:48:20;;;;;;;4.57;3.00;;;;;;;18.21;66.22;100725.25;4935795;29;20082;-90
2021/08/11 02:50:47;;;;;;;4.55;2.65;;;;;;;18.22;66.39;100737.53;4935741;29;20475;-90
2021/08/11 02:53:15;;;;;;;4.40;2.72;;;;;;;18.24;66.64;100737.38;4935636;29;20467;-90
2021/08/11 02:55:41;;;;;;;4.72;2.78;;;;;;;18.16;66.96;100730.13;4935495;29;20119;-90
2021/08/11 02:58:07;;;;;;;5.60;3.65;;;;;;;18.17;66.99;100736.31;4935519;29;20114;-90
2021/08/11 03:00:33;;;;;;;6.72;3.53;;;;;;;18.21;66.73;100733.22;4934752;29;20032;-90
2021/08/11 03:02:59;;;;;;;8.02;3.83;;;;;;;18.18;66.94;100730.00;4935596;29;20110;-90
2021/08/11 03:05:24;;;;;;;5.20;3.50;;;;;;;18.17;66.63;100731.00;4935348;29;20106;-91
2021/08/11 03:07:50;;;;;;;4.95;3.63;;;;;;;18.12;66.38;100728.75;4935452;29;20027;-90
2021/08/11 03:10:16;;;;;;;4.93;3.30;;;;;;;18.01;66.44;100737.75;4935453;29;20549;-90
2021/08/11 03:12:46;;;;;;;7.18;3.35;;;;;;;18.11;66.17;100735.06;4935135;29;20023;-91
2021/08/11 03:15:13;;;;;;;8.20;3.95;;;;;;;17.94;66.50;100741.13;4935195;29;20028;-90
2021/08/11 03:17:39;;;;;;;6.10;3.80;;;;;;;17.69;67.42;100738.06;4935228;29;20032;-91
2021/08/11 03:20:06;;;;;;;9.95;4.45;;;;;;;17.52;68.35;100741.47;4935228;29;20431;-90
2021/08/11 03:22:32;;;;;;;7.03;4.07;;;;;;;17.63;68.40;100739.50;4935210;29;20058;-90
2021/08/11 03:24:57;;;;;;;5.85;4.15;;;;;;;17.58;68.38;100754.16;4935168;29;20031;-90
2021/08/11 03:27:22;;;;;;;8.60;4.22;;;;;;;17.49;68.49;100755.00;4935183;29;20032;-91
2021/08/11 03:29:48;;;;;;;5.50;4.05;;;;;;;17.34;68.93;100744.81;4934986;29;20493;-90
2021/08/11 03:32:13;;;;;;;7.35;3.90;;;;;;;17.35;69.19;100738.50;4934952;29;20039;-90
2021/08/11 03:34:39;;;;;;;6.43;3.45;;;;;;;17.38;68.81;100740.91;4933624;29;20494;-90
2021/08/11 03:37:05;;;;;;;5.80;3.53;;;;;;;17.35;68.52;100743.00;4935128;29;20038;-90
2021/08/11 03:39:31;;;;;;;4.97;3.30;;;;;;;17.27;68.57;100741.03;4935019;29;20031;-90
2021/08/11 03:41:56;;;;;;;4.13;3.40;;;;;;;17.18;68.40;100734.75;4933576;29;20028;-90
2021/08/11 03:44:22;;;;;;;10.05;3.63;;;;;;;17.19;68.47;100730.28;4934871;29;20479;-90
2021/08/11 03:46:47;;;;;;;5.50;3.60;;;;;;;17.25;68.09;100735.88;4934875;29;20079;-91
2021/08/11 03:49:12;;;;;;;4.85;3.42;;;;;;;17.31;68.03;100734.47;4934851;29;20023;-90
2021/08/11 03:51:38;;;;;;;6.22;3.60;;;;;;;17.31;68.34;100733.63;4934771;29;20024;-90
2021/08/11 03:54:03;;;;;;;7.50;3.30;;;;;;;17.29;68.32;100732.94;4934688;29;20602;-90
2021/08/11 03:56:28;;;;;;;6.13;3.72;;;;;;;17.26;68.80;100731.41;4934661;29;20503;-90
2021/08/11 03:58:54;;;;;;;4.65;3.08;;;;;;;17.33;68.64;100729.84;4934887;29;20016;-90
2021/08/11 04:01:19;;;;;;;5.53;3.53;;;;;;;17.33;68.21;100727.19;4934853;29;20039;-90
2021/08/11 04:03:45;;;;;;;4.45;3.10;;;;;;;17.32;68.60;100717.59;4934652;29;20060;-90
2021/08/11 04:06:10;;;;;;;3.20;2.90;;;;;;;17.34;68.30;100718.28;4934594;29;20023;-90
2021/08/11 04:08:36;;;;;;;4.07;3.28;;;;;;;17.37;68.40;100715.31;4934741;29;20026;-90
2021/08/11 04:11:01;;;;;;;5.10;3.92;;;;;;;17.35;68.64;100714.63;4936275;29;20105;-91
2021/08/11 04:13:27;;;;;;;5.95;3.53;;;;;;;17.37;68.52;100706.53;4938594;29;20028;-90
2021/08/11 04:15:52;;;;;;;6.72;3.47;;;;;;;17.36;68.79;100713.66;4938516;29;20147;-90
2021/08/11 04:18:18;;;;;;;4.03;3.10;;;;;;;17.41;69.14;100708.75;4938511;29;20453;-91
2021/08/11 04:20:44;;;;;;;9.38;4.00;;;;;;;17.41;68.88;100713.22;4938431;29;20542;-90
2021/08/11 04:23:10;;;;;;;3.63;3.28;;;;;;;17.43;68.79;100714.75;4938469;29;20034;-90
2021/08/11 04:25:40;;;;;;;5.43;3.88;;;;;;;17.36;68.94;100711.00;4938286;29;20024;-90
2021/08/11 04:28:07;;;;;;;7.82;3.95;;;;;;;17.41;69.37;100711.41;4938328;29;20027;-90
2021/08/11 04:30:32;;;;;;;3.83;3.30;;;;;;;17.47;69.28;100717.16;4938204;29;20079;-90
2021/08/11 04:32:58;;;;;;;4.97;3.60;;;;;;;17.47;68.85;100715.31;4938097;29;20402;-90
2021/08/11 04:35:23;;;;;;;5.03;3.90;;;;;;;17.48;68.93;100713.53;4938106;29;20111;-90
2021/08/11 04:37:49;;;;;;;7.15;4.05;;;;;;;17.35;68.81;100714.63;4938124;29;20075;-90
2021/08/11 04:40:14;;;;;;;5.03;3.42;;;;;;;17.42;68.88;100710.44;4937933;29;20030;-90
2021/08/11 04:42:40;;;;;;;6.72;3.58;;;;;;;17.44;69.14;100712.97;4938059;29;20023;-90
2021/08/11 04:45:07;;;;;;;5.03;3.15;;;;;;;17.48;68.85;100709.03;4938055;29;20055;-90
2021/08/11 04:47:32;;;;;;;4.03;3.28;;;;;;;17.47;68.46;100722.47;4937811;29;20055;-90
2021/08/11 04:49:57;;;;;;;4.38;3.75;;;;;;;17.33;69.07;100715.75;4937969;29;20066;-90
2021/08/11 04:52:23;;;;;;;6.18;3.60;;;;;;;17.33;69.26;100711.28;4936634;29;20047;-91
2021/08/11 04:54:48;;;;;;;4.22;3.03;;;;;;;17.36;69.05;100711.00;4937581;29;20066;-90
2021/08/11 04:57:13;;;;;;;5.28;3.55;;;;;;;17.37;69.01;100720.63;4937986;29;20027;-90
2021/08/11 04:59:39;;;;;;;5.55;3.42;;;;;;;17.36;69.03;100718.16;4937771;29;20028;-90
2021/08/11 05:02:04;;;;;;;4.13;2.75;;;;;;;17.39;69.55;100712.53;4937633;29;20052;-90
2021/08/11 05:04:29;;;;;;;4.47;3.00;;;;;;;17.43;69.36;100717.41;4952355;28;20028;-90
2021/08/11 05:06:56;;;;;;;5.95;3.90;;;;;;;17.47;69.23;100711.84;4937525;29;20031;-90
2021/08/11 05:09:21;;;;;;;7.43;3.90;;;;;;;17.47;69.21;100711.84;4937459;29;20035;-90
2021/08/11 05:11:47;;;;;;;5.13;3.50;;;;;;;17.52;69.31;100722.88;4937609;29;20098;-90
2021/08/11 05:14:13;;;;;;;5.10;3.50;;;;;;;17.43;69.25;100717.41;4937402;29;20039;-90
2021/08/11 05:16:38;;;;;;;4.65;3.30;;;;;;;17.45;69.17;100722.59;4937449;29;20032;-90
2021/08/11 05:19:03;;;;;;;4.57;3.40;;;;;;;17.45;69.06;100734.03;4937268;29;20034;-89
2021/08/11 05:21:29;;;;;;;5.50;3.50;;;;;;;17.38;69.60;100734.78;4936946;29;20035;-90
2021/08/11 05:23:55;;;;;;;6.93;3.45;;;;;;;17.48;69.51;100734.75;4936507;29;20030;-90
2021/08/11 05:26:20;;;;;;;5.22;3.33;;;;;;;17.58;69.08;100739.06;4937306;29;20070;-90
2021/08/11 05:28:46;;;;;;;4.07;3.33;;;;;;;17.63;68.99;100738.63;4937253;29;20039;-90
2021/08/11 05:31:13;;;;;;;6.25;4.18;;;;;;;17.68;69.26;100747.03;4937248;29;20051;-90
2021/08/11 05:33:39;;;;;;;7.63;3.95;;;;;;;17.61;69.25;100736.16;4937119;29;20079;-90
2021/08/11 05:36:04;;;;;;;6.57;4.15;;;;;;;17.68;69.40;100741.72;4937135;29;20055;-90
2021/08/11 05:38:30;;;;;;;4.57;3.63;;;;;;;17.67;69.02;100745.34;4937000;29;20082;-90
2021/08/11 05:40:56;;;;;;;5.90;3.60;;;;;;;17.58;69.20;100741.72;4937081;29;20087;-90
2021/08/11 05:43:21;;;;;;;10.85;4.38;;;;;;;17.56;68.86;100742.84;4937045;29;20024;-90
2021/08/11 05:45:47;;;;;;;5.70;3.70;;;;;;;17.58;68.92;100746.22;4936806;29;20445;-91
2021/08/11 05:48:12;;;;;;;5.45;3.40;;;;;;;17.52;68.61;100736.97;4937003;29;20032;-90
2021/08/11 05:50:38;;;;;;;4.80;3.30;;;;;;;17.55;68.08;100749.13;4936711;29;20075;-90
2021/08/11 05:53:03;;;;;;;5.95;3.40;;;;;;;17.50;67.98;100748.72;4936804;29;20406;-90
2021/08/11 05:55:29;;;;;;;7.13;3.15;;;;;;;17.26;68.51;100750.00;4936597;29;20038;-91
2021/08/11 05:57:54;;;;;;;4.57;3.70;;;;;;;17.18;69.11;100756.00;4936712;29;20039;-89
2021/08/11 06:00:20;;;;;;;3.65;2.75;;;;;;;17.10;69.67;100757.63;4936655;29;20035;-90
2021/08/11 06:02:45;;;;;;;4.45;3.10;;;;;;;17.02;69.51;100753.88;4936709;29;20028;-91
2021/08/11 06:05:11;;;;;;;5.63;3.15;;;;;;;17.05;69.92;100753.59;4936707;29;20494;-90
2021/08/11 06:07:37;;;;;;;4.93;3.08;;;;;;;17.10;70.17;100758.50;4936468;29;20039;-90
2021/08/11 06:10:04;;;;;;;5.43;3.47;;;;;;;17.18;70.45;100758.66;4936421;28;20031;-90
2021/08/11 06:12:30;;;;;;;3.28;2.97;;;;;;;17.22;70.61;100756.56;4936425;29;20027;-91
2021/08/11 06:14:55;;;;;;;8.35;3.35;;;;;;;17.36;71.33;100758.78;4936240;29;20031;-90
2021/08/11 06:17:20;;;;;;;6.82;3.63;;;;;;;17.50;70.56;100759.34;4936327;29;20387;-90
2021/08/11 06:19:47;;;;;;;4.95;4.00;;;;;;;17.67;71.36;100765.75;4936355;29;20072;-90
2021/08/11 06:22:13;;;;;;;6.70;3.60;;;;;;;17.79;70.83;100754.84;4936189;29;20110;-90
2021/08/11 06:24:39;;;;;;;8.43;4.28;;;;;;;17.98;70.76;100758.47;4936162;29;20129;-91
2021/08/11 06:27:04;;;;;;;5.97;4.30;;;;;;;18.21;69.98;100759.78;4936103;29;20486;-90
2021/08/11 06:29:30;;;;;;;6.72;3.80;;;;;;;18.28;69.44;100759.19;4936137;29;20123;-90
2021/08/11 06:31:55;;;;;;;5.03;4.35;;;;;;;18.35;68.77;100768.28;4935959;29;20036;-90
2021/08/11 06:34:23;;;;;;;4.28;3.63;;;;;;;18.44;68.58;100762.06;4935620;29;20509;-90
2021/08/11 06:36:49;;;;;;;4.90;3.60;;;;;;;18.52;68.45;100754.22;4935894;29;20094;-90
2021/08/11 06:39:14;;;;;;;5.47;3.88;;;;;;;18.77;67.94;100757.97;4935993;29;20486;-91
2021/08/11 06:41:40;;;;;;;7.63;4.00;;;;;;;19.63;66.16;100762.00;4935882;29;20028;-90
2021/08/11 06:44:05;;;;;;;7.93;3.53;;;;;;;19.88;65.82;100754.22;4935987;29;20032;-90
2021/08/11 06:46:31;;;;;;;6.47;3.50;;;;;;;21.05;63.49;100764.25;4935583;29;20076;-90
2021/08/11 06:48:57;;;;;;;5.53;3.53;;;;;;;21.96;59.94;100762.47;4935834;29;20103;-90
2021/08/11 06:51:22;;;;;;;6.47;3.13;;;;;;;22.17;58.52;100760.03;4935740;29;20023;-90
2021/08/11 06:53:47;;;;;;;6.50;3.08;;;;;;;22.46;56.71;100761.34;4935691;29;20059;-90
2021/08/11 06:56:13;;;;;;;3.55;2.53;;;;;;;22.98;54.87;100759.88;4935553;29;20122;-90
2021/08/11 06:58:38;;;;;;;3.92;2.15;;;;;;;23.90;53.96;100767.94;4935540;29;20035;-90
2021/08/11 07:01:04;;;;;;;4.63;2.42;;;;;;;24.65;51.82;100765.28;4935729;29;20078;-91
2021/08/11 07:03:29;;;;;;;6.07;2.22;;;;;;;25.64;49.57;100760.09;4935545;29;20083;-91
2021/08/11 07:05:55;;;;;;;4.25;2.05;;;;;;;26.35;47.28;100752.94;4934121;29;20024;-92
2021/08/11 07:08:20;;;;;;;7.72;1.80;;;;;;;26.99;45.84;100757.94;4935568;29;20066;-91
2021/08/11 07:10:47;;;;;;;4.97;2.13;;;;;;;27.39;44.49;100766.13;4935508;29;20062;-91
2021/08/11 07:13:12;;;;;;;3.50;1.60;;;;;;;27.95;42.48;100772.16;4934110;29;20434;-91
2021/08/11 07:15:37;;;;;;;5.93;2.00;;;;;;;27.29;42.05;100771.94;4935235;29;20023;-92
2021/08/11 07:18:03;;;;;;;3.42;1.63;;;;;;;26.96;43.66;100771.00;4935303;29;20027;-91
2021/08/11 07:20:30;;;;;;;5.53;2.30;;;;;;;26.44;44.01;100776.78;4934012;29;20478;-91
2021/08/11 07:22:58;;;;;;;5.18;2.10;;;;;;;26.00;44.98;100774.44;4935206;29;20067;-91
2021/08/11 07:25:23;;;;;;;5.93;1.60;;;;;;;25.88;45.02;100768.75;4935019;29;20028;-91
2021/08/11 07:27:48;;;;;;;7.63;1.73;;;;;;;25.51;45.57;100763.53;4935341;29;20074;-91
2021/08/11 07:30:14;;;;;;;6.35;1.70;;;;;;;25.25;46.99;100764.09;4935159;29;20115;-91
2021/08/11 07:32:41;;;;;;;7.32;2.22;;;;;;;25.28;47.01;100766.41;4934943;29;20419;-91
2021/08/11 07:35:07;;;;;;;3.75;1.88;;;;;;;25.05;47.22;100765.72;4934844;29;20028;-91
2021/08/11 07:37:43;;;;;;;3.55;1.67;;;;;;;25.14;47.10;100770.78;4935071;29;20042;-91
2021/08/11 07:40:12;;;;;;;6.30;1.65;;;;;;;25.15;47.72;100768.91;4935028;29;20028;-91
2021/08/11 07:42:37;;;;;;;6.50;1.73;;;;;;;25.50;49.16;100769.09;4934955;29;20042;-91
2021/08/11 07:45:03;;;;;;;3.45;1.65;;;;;;;26.07;45.62;100776.16;4934317;29;20028;-91
2021/08/11 07:47:28;;;;;;;3.88;1.55;;;;;;;26.57;44.99;100772.50;4934720;29;20023;-91
2021/08/11 07:49:54;;;;;;;10.52;1.45;;;;;;;26.79;44.05;100774.03;4934687;29;20546;-90
2021/08/11 07:52:19;;;;;;;2.50;1.13;;;;;;;27.24;43.09;100770.88;4938213;29;20032;-91
2021/08/11 07:54:44;;;;;;;2.60;0.95;;;;;;;27.54;41.88;100775.88;4934625;29;20028;-91
2021/08/11 07:57:10;;;;;;;3.40;1.60;;;;;;;27.33;42.90;100768.81;4934809;29;20490;-92
2021/08/11 07:59:35;;;;;;;4.30;1.30;;;;;;;26.95;42.24;100772.84;4934718;29;20094;-91
2021/08/11 08:02:01;;;;;;;2.53;1.00;;;;;;;26.44;43.89;100770.56;4934812;29;20106;-90
2021/08/11 08:04:26;;;;;;;5.47;1.75;;;;;;;26.03;44.51;100776.75;4934556;29;20107;-91
2021/08/11 08:06:51;;;;;;;12.90;1.73;;;;;;;25.08;45.92;100779.59;4934674;29;20046;-91
2021/08/11 08:09:16;;;;;;;7.35;1.30;;;;;;;24.84;46.21;100779.94;4933307;29;20055;-91
2021/08/11 08:11:42;;;;;;;2.72;1.20;;;;;;;24.03;47.71;100778.03;4934587;29;20031;-91
2021/08/11 08:14:07;;;;;;;3.17;1.35;;;;;;;24.07;49.04;100776.66;4934468;29;20036;-91
2021/08/11 08:16:33;;;;;;;4.65;1.23;;;;;;;24.27;48.54;100768.88;4934386;29;20036;-91
2021/08/11 08:18:58;;;;;;;3.42;1.20;;;;;;;24.38;47.39;100767.56;4934575;29;20020;-91
2021/08/11 08:21:23;;;;;;;5.55;1.35;;;;;;;24.22;47.94;100773.97;4934649;29;20082;-90
2021/08/11 08:23:48;;;;;;;4.70;1.38;;;;;;;24.15;47.76;100775.72;4934454;29;20027;-91
2021/08/11 08:26:14;;;;;;;4.07;1.60;;;;;;;24.05;49.18;100769.78;4934508;29;20036;-91
2021/08/11 08:28:39;;;;;;;2.13;1.30;;;;;;;24.25;48.42;100768.25;4934583;29;20103;-91
2021/08/11 08:31:05;;;;;;;2.58;1.65;;;;;;;24.12;48.24;100760.81;4934426;29;20052;-90
2021/08/11 08:33:30;;;;;;;2.20;1.30;;;;;;;24.06;49.14;100766.09;4934281;29;20036;-91
2021/08/11 08:35:55;;;;;;;3.13;1.70;;;;;;;24.11;49.29;100769.06;4934372;29;20031;-91
2021/08/11 08:38:21;;;;;;;6.90;1.67;;;;;;;24.18;49.27;100758.44;4934390;29;20043;-91
2021/08/11 08:40:47;;;;;;;3.72;1.23;;;;;;;24.31;49.67;100766.66;4934342;29;20027;-91
2021/08/11 08:43:13;;;;;;;3.30;1.13;;;;;;;24.47;48.70;100769.16;4934254;29;20075;-91
2021/08/11 08:45:40;;;;;;;5.57;1.65;;;;;;;24.51;49.20;100759.72;4934253;29;20040;-91
2021/08/11 08:48:06;;;;;;;4.97;1.42;;;;;;;24.40;50.50;100753.97;4934271;29;20030;-91
2021/08/11 08:50:33;;;;;;;5.60;1.33;;;;;;;24.75;49.12;100760.44;4934374;29;20402;-90
2021/08/11 08:53:01;;;;;;;3.22;1.30;;;;;;;24.99;48.31;100758.44;4934225;29;20030;-91
2021/08/11 08:55:26;;;;;;;3.83;1.30;;;;;;;25.36;47.84;100764.63;4933929;29;20394;-91
2021/08/11 08:57:52;;;;;;;1.58;1.10;;;;;;;25.44;47.97;100742.97;4937043;29;20024;-91
2021/08/11 09:00:19;;;;;;;5.30;1.50;;;;;;;26.10;47.09;100743.47;4936534;29;20030;-90
2021/08/11 09:02:44;;;;;;;2.95;1.42;;;;;;;26.46;46.05;100745.13;4937661;29;20467;-91
2021/08/11 09:05:11;;;;;;;3.28;1.60;;;;;;;26.82;45.01;100749.41;4937647;29;20054;-91
2021/08/11 09:07:45;;;;;;;3.92;1.77;;;;;;;27.10;44.52;100749.25;4937680;29;20027;-91
2021/08/11 09:10:20;;;;;;;4.95;1.42;;;;;;;26.94;45.05;100744.25;4937575;29;20039;-91
2021/08/11 09:12:47;;;;;;;2.17;1.33;;;;;;;27.08;45.16;100751.31;4937657;29;20027;-91
2021/08/11 09:15:33;;;;;;;3.03;1.20;;;;;;;27.33;45.44;100748.09;4937390;29;20179;-91
2021/08/11 09:18:10;;;;;;;5.03;1.50;;;;;;;27.03;46.22;100742.19;4937418;29;20039;-91
2021/08/11 09:20:35;;;;;;;4.85;1.40;;;;;;;27.50;43.33;100743.09;4936051;29;20074;-91
2021/08/11 09:23:01;;;;;;;2.17;1.27;;;;;;;27.36;44.28;100744.97;4952053;29;20426;-92
2021/08/11 09:25:26;;;;;;;3.30;1.58;;;;;;;27.27;44.14;100744.34;4937388;29;20032;-91
2021/08/11 09:27:52;;;;;;;2.30;1.13;;;;;;;27.10;44.47;100737.66;4937283;29;20058;-91
2021/08/11 09:30:25;;;;;;;5.07;1.10;;;;;;;26.91;45.53;100745.47;4937556;29;20558;-91
2021/08/11 09:32:59;;;;;;;2.88;1.48;;;;;;;26.74;45.81;100744.22;4937082;29;20114;-91
2021/08/11 09:35:29;;;;;;;3.03;1.30;;;;;;;26.58;46.21;100744.50;4937135;29;20098;-91
2021/08/11 09:38:08;;;;;;;1.95;1.30;;;;;;;26.80;45.56;100743.41;4951999;29;20035;-91
2021/08/11 09:40:38;;;;;;;4.40;1.40;;;;;;;26.88;47.23;100740.50;4937115;29;20027;-91
2021/08/11 09:43:15;;;;;;;2.93;1.27;;;;;;;27.74;45.55;100743.50;4937013;29;20087;-92
2021/08/11 09:45:48;;;;;;;2.47;1.05;;;;;;;28.13;42.99;100736.41;4935528;29;20482;-90
2021/08/11 09:48:16;;;;;;;2.40;0.95;;;;;;;29.10;42.00;100731.78;4936836;29;20413;-92
2021/08/11 09:50:46;;;;;;;3.13;1.05;;;;;;;29.96;41.29;100724.03;4936779;29;20060;-92
2021/08/11 09:53:32;;;;;;;5.65;1.33;;;;;;;31.23;38.72;100724.03;4936713;29;20056;-92
2021/08/11 09:56:06;;;;;;;2.25;0.82;;;;;;;31.78;36.12;100720.19;4936737;29;20042;-92
2021/08/11 09:58:41;;;;;;;1.85;0.90;;;;;;;32.27;34.70;100722.63;4936705;29;20030;-92
2021/08/11 10:01:22;;;;;;;5.70;0.65;;;;;;;31.96;35.60;100718.41;4936465;29;20056;-91
2021/08/11 10:03:59;;;;;;;0.77;0.70;;;;;;;33.14;33.53;100727.00;4935490;29;20028;-93
2021/08/11 10:06:32;;;;;;;2.60;0.90;;;;;;;32.55;33.88;100729.13;4936587;29;20032;-92
2021/08/11 10:09:15;;;;;;;1.63;0.80;;;;;;;32.35;34.98;100732.28;4950858;28;20024;-92
2021/08/11 10:11:47;;;;;;;3.88;0.80;;;;;;;31.82;35.36;100725.97;4936435;29;20164;-92
2021/08/11 10:14:14;;;;;;;1.00;0.80;;;;;;;31.57;36.64;100728.91;4936468;29;20024;-92
2021/08/11 10:16:41;;;;;;;2.20;0.88;;;;;;;31.25;36.61;100722.97;4936344;29;20040;-92
2021/08/11 10:19:08;;;;;;;4.22;0.80;;;;;;;31.80;36.61;100728.09;4936287;29;20509;-92
2021/08/11 10:21:36;;;;;;;1.48;0.80;;;;;;;32.12;36.29;100719.56;4936240;29;20059;-93
2021/08/11 10:24:01;;;;;;;2.78;0.80;;;;;;;32.34;34.34;100717.84;4936190;29;20047;-92
2021/08/11 10:26:28;;;;;;;3.75;1.13;;;;;;;31.85;36.70;100714.63;4936319;29;20032;-93
2021/08/11 10:28:55;;;;;;;1.33;0.73;;;;;;;33.09;35.25;100713.28;4936199;29;20078;-92
2021/08/11 10:31:21;;;;;;;2.42;0.90;;;;;;;33.94;33.38;100713.22;4936143;29;20220;-92
2021/08/11 10:33:49;;;;;;;5.18;0.90;;;;;;;33.78;32.51;100713.00;4935949;29;20032;-92
2021/08/11 10:36:15;;;;;;;2.78;1.30;;;;;;;33.32;33.43;100711.50;4935855;29;20035;-93
2021/08/11 10:38:43;;;;;;;3.67;1.60;;;;;;;32.40;34.73;100708.72;4936013;29;20047;-92
2021/08/11 10:41:10;;;;;;;4.28;0.98;;;;;;;32.50;35.38;100724.41;4936011;29;20020;-92
2021/08/11 10:43:36;;;;;;;2.47;1.38;;;;;;;31.65;36.55;100717.72;4935899;29;20028;-92
2021/08/11 10:46:05;;;;;;;3.65;1.02;;;;;;;31.02;37.84;100717.28;4936154;29;20474;-92
2021/08/11 10:48:31;;;;;;;5.22;1.10;;;;;;;31.05;36.94;100721.41;4936013;29;20032;-92
2021/08/11 10:50:57;;;;;;;2.47;1.10;;;;;;;30.98;37.05;100721.47;4935774;29;20035;-92
2021/08/11 10:53:23;;;;;;;2.60;1.10;;;;;;;30.69;37.66;100723.16;4935564;29;20528;-92
2021/08/11 10:55:50;;;;;;;3.53;1.40;;;;;;;30.83;38.00;100729.22;4935561;29;20048;-92
2021/08/11 10:58:42;;;;;;;2.55;1.70;;;;;;;30.70;38.47;100735.63;4935743;29;20066;-92
2021/08/11 11:01:43;;;;;;;4.63;2.30;;;;;;;30.48;36.71;100737.19;4936876;29;20027;-94
2021/08/11 11:04:08;;;;;;;3.97;2.20;;;;;;;30.22;37.35;100722.91;4877159;29;20489;-92
2021/08/11 11:07:12;;;;;;;4.55;2.08;;;;;;;30.16;38.42;100724.63;4934133;29;20365;-92
2021/08/11 11:09:39;;;;;;;3.00;1.90;;;;;;;30.09;37.84;100733.88;4937552;29;20023;-92
2021/08/11 11:12:16;;;;;;;2.13;1.80;;;;;;;29.55;39.48;100739.78;4935915;29;20144;-92
2021/08/11 11:14:52;;;;;;;3.70;1.70;;;;;;;29.48;38.84;100736.31;4934314;29;20027;-92
2021/08/11 11:17:19;;;;;;;5.70;1.60;;;;;;;28.67;40.96;100737.88;4936437;29;20491;-91
2021/08/11 11:20:09;;;;;;;2.40;1.52;;;;;;;28.85;40.72;100724.47;4936667;29;20028;-91
2021/08/11 11:22:42;;;;;;;4.45;1.40;;;;;;;29.36;40.55;100719.13;4936757;29;20442;-92
2021/08/11 11:25:09;;;;;;;2.83;1.50;;;;;;;29.15;41.50;100715.78;4935854;29;20032;-91
2021/08/11 11:27:40;;;;;;;1.60;1.27;;;;;;;29.53;40.39;100731.06;4935618;29;20032;-92